createdAt,value
2023-08-07T00:00:03.106Z,2.8
2023-08-07T00:02:03.713Z,3.0
2023-08-07T00:04:03.206Z,3.0
2023-08-07T00:06:02.292Z,2.8
2023-08-07T00:08:04.185Z,2.7
2023-08-07T00:10:03.758Z,3.2
2023-08-07T00:12:03.881Z,2.8
2023-08-07T00:14:03.058Z,2.7
2023-08-07T00:16:03.308Z,3.0
2023-08-07T00:18:02.920Z,2.8
2023-08-07T00:20:03.146Z,2.9
2023-08-07T00:22:02.519Z,2.8
2023-08-07T00:24:02.416Z,2.7
2023-08-07T00:26:02.897Z,2.9
2023-08-07T00:28:02.475Z,2.8
2023-08-07T00:30:02.329Z,2.7
2023-08-07T00:32:03.395Z,2.7
2023-08-07T00:34:02.902Z,3.1
2023-08-07T00:36:02.262Z,2.6
2023-08-07T00:38:03.772Z,2.8
2023-08-07T00:40:03.253Z,2.7
2023-08-07T00:42:02.331Z,2.7
2023-08-07T00:44:02.631Z,2.6
2023-08-07T00:46:03.430Z,2.7
2023-08-07T00:48:03.305Z,2.4
2023-08-07T00:50:04.788Z,2.6
2023-08-07T00:52:03.478Z,2.6
2023-08-07T00:54:05.105Z,2.6
2023-08-07T00:56:03.218Z,2.8
2023-08-07T00:58:02.922Z,2.8
2023-08-07T01:00:03.378Z,2.4
2023-08-07T01:02:03.161Z,2.6
2023-08-07T01:04:02.494Z,2.6
2023-08-07T01:06:03.646Z,2.5
2023-08-07T01:08:04.566Z,2.6
2023-08-07T01:10:04.437Z,2.5
2023-08-07T01:12:10.710Z,2.6
2023-08-07T01:14:09.776Z,2.6
2023-08-07T01:16:15.149Z,2.5
2023-08-07T01:18:04.705Z,2.6
2023-08-07T01:20:03.351Z,2.5
2023-08-07T01:22:06.146Z,2.7
2023-08-07T01:24:02.381Z,2.8
2023-08-07T01:26:02.349Z,2.8
2023-08-07T01:28:12.445Z,3.0
2023-08-07T01:30:15.192Z,2.8
2023-08-07T01:32:09.006Z,2.9
2023-08-07T01:34:08.739Z,2.7
2023-08-07T01:36:07.236Z,2.8
2023-08-07T01:38:03.395Z,2.9
2023-08-07T01:40:04.936Z,2.7
2023-08-07T01:42:05.646Z,2.8
2023-08-07T01:44:02.952Z,2.7
2023-08-07T01:46:05.553Z,2.7
2023-08-07T01:48:02.742Z,2.8
2023-08-07T01:50:03.319Z,2.5
2023-08-07T01:52:03.030Z,2.6
2023-08-07T01:54:02.389Z,2.8
2023-08-07T01:56:03.368Z,2.9
2023-08-07T01:58:03.136Z,2.7
2023-08-07T02:00:04.334Z,2.7
2023-08-07T02:02:03.876Z,2.6
2023-08-07T02:04:02.842Z,2.7
2023-08-07T02:06:03.139Z,2.8
2023-08-07T02:08:02.811Z,2.6
2023-08-07T02:10:02.361Z,2.6
2023-08-07T02:12:02.992Z,2.7
2023-08-07T02:14:03.503Z,2.6
2023-08-07T02:16:03.456Z,2.5
2023-08-07T02:18:03.196Z,2.5
2023-08-07T02:20:03.619Z,2.8
2023-08-07T02:22:04.563Z,2.6
2023-08-07T02:24:02.280Z,2.5
2023-08-07T02:26:03.317Z,2.6
2023-08-07T02:28:02.483Z,2.5
2023-08-07T02:30:04.088Z,2.7
2023-08-07T02:32:03.486Z,2.7
2023-08-07T02:34:02.315Z,2.5
2023-08-07T02:36:02.292Z,2.4
2023-08-07T02:38:03.018Z,2.5
2023-08-07T02:40:02.843Z,2.6
2023-08-07T02:42:03.651Z,2.6
2023-08-07T02:44:02.313Z,2.5
2023-08-07T02:46:03.084Z,2.3
2023-08-07T02:48:04.021Z,2.7
2023-08-07T02:50:03.042Z,2.6
2023-08-07T02:52:03.082Z,2.6
2023-08-07T02:54:02.939Z,2.4
2023-08-07T02:56:02.353Z,2.2
2023-08-07T02:58:02.284Z,2.4
2023-08-07T03:00:03.344Z,2.2
2023-08-07T03:02:02.378Z,2.3
2023-08-07T03:04:02.558Z,2.4
2023-08-07T03:06:02.386Z,2.3
2023-08-07T03:08:02.964Z,2.3
2023-08-07T03:10:04.145Z,2.4
2023-08-07T03:12:03.936Z,2.4
2023-08-07T03:14:03.703Z,2.4
2023-08-07T03:16:05.496Z,2.4
2023-08-07T03:18:02.334Z,2.5
2023-08-07T03:20:04.536Z,2.3
2023-08-07T03:22:03.233Z,2.2
2023-08-07T03:24:02.338Z,2.1
2023-08-07T03:26:17.417Z,2.3
2023-08-07T03:28:02.542Z,2.2
2023-08-07T03:30:03.155Z,2.7
2023-08-07T03:32:02.334Z,2.3
2023-08-07T03:34:03.047Z,2.3
2023-08-07T03:36:02.428Z,2.2
2023-08-07T03:38:02.345Z,2.2
2023-08-07T03:40:02.556Z,2.2
2023-08-07T03:42:02.351Z,2.2
2023-08-07T03:44:03.119Z,2.3
2023-08-07T03:46:04.197Z,2.1
2023-08-07T03:48:02.888Z,2.1
2023-08-07T03:50:02.441Z,2.1
2023-08-07T03:52:02.540Z,2.2
2023-08-07T03:54:02.325Z,2.1
2023-08-07T03:56:02.549Z,1.9
2023-08-07T03:58:03.763Z,2.0
2023-08-07T04:00:03.648Z,1.9
2023-08-07T04:02:02.400Z,1.8
2023-08-07T04:04:03.139Z,1.8
2023-08-07T04:06:02.420Z,1.9
2023-08-07T04:08:02.587Z,1.8
2023-08-07T04:10:02.891Z,1.9
2023-08-07T04:12:02.977Z,1.7
2023-08-07T04:14:02.355Z,1.9
2023-08-07T04:16:04.912Z,2.0
2023-08-07T04:18:02.379Z,1.8
2023-08-07T04:20:04.581Z,1.8
2023-08-07T04:22:02.283Z,1.8
2023-08-07T04:24:08.417Z,1.7
2023-08-07T04:26:02.968Z,1.9
2023-08-07T04:28:02.503Z,1.7
2023-08-07T04:30:02.282Z,1.6
2023-08-07T04:32:03.042Z,1.6
2023-08-07T04:34:02.300Z,1.9
2023-08-07T04:36:02.296Z,1.7
2023-08-07T04:38:03.701Z,1.7
2023-08-07T04:40:02.567Z,1.6
2023-08-07T04:42:02.578Z,2.0
2023-08-07T04:44:03.311Z,1.7
2023-08-07T04:46:02.973Z,1.6
2023-08-07T04:48:02.319Z,1.6
2023-08-07T04:50:02.345Z,1.8
2023-08-07T04:52:16.622Z,1.8
2023-08-07T04:54:02.398Z,1.8
2023-08-07T04:56:02.546Z,1.7
2023-08-07T04:58:02.300Z,1.7
2023-08-07T05:00:02.610Z,1.9
2023-08-07T05:02:02.383Z,1.7
2023-08-07T05:04:03.287Z,1.8
2023-08-07T05:06:02.940Z,1.7
2023-08-07T05:08:02.547Z,1.8
2023-08-07T05:10:03.588Z,1.7
2023-08-07T05:12:02.920Z,1.9
2023-08-07T05:14:02.834Z,1.8
2023-08-07T05:16:02.721Z,1.8
2023-08-07T05:18:02.545Z,1.8
2023-08-07T05:20:02.993Z,1.9
2023-08-07T05:22:02.262Z,1.8
2023-08-07T05:24:02.885Z,1.8
2023-08-07T05:26:03.173Z,1.8
2023-08-07T05:28:03.402Z,1.8
2023-08-07T05:30:03.518Z,1.6
2023-08-07T05:32:03.623Z,1.8
2023-08-07T05:34:02.456Z,1.8
2023-08-07T05:36:02.302Z,1.7
2023-08-07T05:38:02.404Z,2.0
2023-08-07T05:40:03.959Z,1.9
2023-08-07T05:42:03.060Z,1.7
2023-08-07T05:44:02.303Z,1.8
2023-08-07T05:46:02.327Z,1.8
2023-08-07T05:48:02.290Z,1.7
2023-08-07T05:50:02.694Z,1.8
2023-08-07T05:52:03.199Z,1.8
2023-08-07T05:54:02.328Z,1.7
2023-08-07T05:56:02.388Z,1.9
2023-08-07T05:58:02.300Z,2.1
2023-08-07T06:00:02.576Z,1.9
2023-08-07T06:02:05.496Z,1.8
2023-08-07T06:04:02.523Z,1.8
2023-08-07T06:06:03.022Z,1.7
2023-08-07T06:08:02.952Z,1.9
2023-08-07T06:10:02.390Z,1.9
2023-08-07T06:12:02.630Z,1.8
2023-08-07T06:14:03.665Z,1.9
2023-08-07T06:16:02.550Z,1.7
2023-08-07T06:18:03.005Z,1.9
2023-08-07T06:20:04.767Z,1.8
2023-08-07T06:22:02.930Z,2.0
2023-08-07T06:24:02.302Z,1.8
2023-08-07T06:26:04.757Z,2.0
2023-08-07T06:28:02.479Z,2.2
2023-08-07T06:30:03.343Z,1.8
2023-08-07T06:32:03.045Z,2.0
2023-08-07T06:34:02.455Z,1.9
2023-08-07T06:36:03.871Z,1.8
2023-08-07T06:38:02.354Z,1.8
2023-08-07T06:40:03.144Z,1.9
2023-08-07T06:42:02.599Z,1.9
2023-08-07T06:44:02.859Z,1.9
2023-08-07T06:46:02.973Z,1.7
2023-08-07T06:48:02.517Z,1.8
2023-08-07T06:50:03.022Z,1.7
2023-08-07T06:52:02.910Z,1.6
2023-08-07T06:54:02.285Z,1.7
2023-08-07T06:56:04.144Z,1.9
2023-08-07T06:58:02.298Z,1.7
2023-08-07T07:00:02.591Z,1.9
2023-08-07T07:02:03.194Z,2.0
2023-08-07T07:04:02.638Z,2.1
2023-08-07T07:06:02.373Z,2.0
2023-08-07T07:08:02.494Z,1.9
2023-08-07T07:10:02.584Z,1.8
2023-08-07T07:12:02.349Z,1.7
2023-08-07T07:14:02.918Z,2.0
2023-08-07T07:16:03.132Z,1.7
2023-08-07T07:18:03.451Z,1.8
2023-08-07T07:20:02.381Z,1.8
2023-08-07T07:22:02.503Z,1.8
2023-08-07T07:24:03.899Z,1.6
2023-08-07T07:26:02.323Z,1.8
2023-08-07T07:28:02.716Z,1.7
2023-08-07T07:30:02.278Z,1.7
2023-08-07T07:32:02.331Z,2.0
2023-08-07T07:34:02.500Z,1.9
2023-08-07T07:36:02.311Z,1.9
2023-08-07T07:38:02.959Z,1.9
2023-08-07T07:40:03.115Z,1.8
2023-08-07T07:42:02.365Z,1.7
2023-08-07T07:44:02.915Z,1.8
2023-08-07T07:46:02.518Z,1.8
2023-08-07T07:48:02.361Z,1.8
2023-08-07T07:50:08.137Z,1.7
2023-08-07T07:52:02.757Z,1.7
2023-08-07T07:54:14.656Z,1.8
2023-08-07T07:56:02.341Z,1.8
2023-08-07T07:58:02.424Z,1.8
2023-08-07T08:00:08.382Z,1.6
2023-08-07T08:02:03.001Z,1.6
2023-08-07T08:04:02.605Z,1.9
2023-08-07T08:06:02.731Z,1.7
2023-08-07T08:08:03.324Z,1.8
2023-08-07T08:10:02.374Z,1.6
2023-08-07T08:12:02.444Z,1.7
2023-08-07T08:14:03.035Z,1.7
2023-08-07T08:16:02.538Z,1.7
2023-08-07T08:18:02.546Z,1.7
2023-08-07T08:20:02.552Z,1.6
2023-08-07T08:22:02.295Z,1.6
2023-08-07T08:24:02.338Z,1.7
2023-08-07T08:26:02.900Z,1.7
2023-08-07T08:28:03.242Z,1.9
2023-08-07T08:30:03.430Z,1.9
2023-08-07T08:32:02.328Z,1.8
2023-08-07T08:34:02.337Z,1.8
2023-08-07T08:36:02.316Z,1.8
2023-08-07T08:38:04.002Z,1.9
2023-08-07T08:40:03.286Z,1.9
2023-08-07T08:42:03.259Z,1.6
2023-08-07T08:44:03.715Z,1.7
2023-08-07T08:46:02.543Z,1.8
2023-08-07T08:48:04.292Z,1.8
2023-08-07T08:50:07.437Z,1.7
2023-08-07T08:52:04.679Z,1.8
2023-08-07T08:54:03.529Z,1.8
2023-08-07T08:56:03.433Z,2.0
2023-08-07T08:58:04.238Z,2.0
2023-08-07T09:00:07.480Z,2.0
2023-08-07T09:02:03.643Z,1.9
2023-08-07T09:04:05.386Z,1.9
2023-08-07T09:06:02.744Z,2.0
2023-08-07T09:08:03.445Z,1.9
2023-08-07T09:10:03.782Z,2.0
2023-08-07T09:12:04.499Z,1.9
2023-08-07T09:14:04.151Z,2.1
2023-08-07T09:16:04.023Z,2.0
2023-08-07T09:18:04.743Z,1.7
2023-08-07T09:20:04.251Z,2.0
2023-08-07T09:22:02.427Z,1.8
2023-08-07T09:24:02.358Z,2.0
2023-08-07T09:26:04.565Z,2.0
2023-08-07T09:28:04.813Z,1.8
2023-08-07T09:30:03.819Z,1.8
2023-08-07T09:32:09.052Z,2.0
2023-08-07T09:34:05.731Z,1.7
2023-08-07T09:36:03.483Z,2.0
2023-08-07T09:38:03.800Z,1.8
2023-08-07T09:40:02.894Z,1.8
2023-08-07T09:42:02.903Z,1.8
2023-08-07T09:44:08.808Z,2.0
2023-08-07T09:46:04.573Z,2.1
2023-08-07T09:48:03.855Z,2.2
2023-08-07T09:50:02.699Z,1.9
2023-08-07T09:52:08.194Z,1.7
2023-08-07T09:54:02.266Z,1.8
2023-08-07T09:56:03.272Z,1.7
2023-08-07T09:58:02.573Z,2.1
2023-08-07T10:00:02.654Z,1.8
2023-08-07T10:02:03.957Z,1.9
2023-08-07T10:04:03.555Z,1.8
2023-08-07T10:06:04.295Z,1.6
2023-08-07T10:08:02.604Z,1.7
2023-08-07T10:10:04.035Z,1.7
2023-08-07T10:12:03.686Z,1.7
2023-08-07T10:14:02.785Z,1.8
2023-08-07T10:16:03.737Z,1.8
2023-08-07T10:18:02.401Z,1.5
2023-08-07T10:20:03.868Z,1.8
2023-08-07T10:22:04.226Z,1.4
2023-08-07T10:24:04.912Z,1.7
2023-08-07T10:26:05.436Z,1.7
2023-08-07T10:28:04.608Z,1.7
2023-08-07T10:30:07.097Z,1.5
2023-08-07T10:32:03.636Z,1.6
2023-08-07T10:34:03.012Z,1.4
2023-08-07T10:36:10.842Z,1.5
2023-08-07T10:38:11.886Z,1.7
2023-08-07T10:40:04.432Z,1.6
2023-08-07T10:42:04.840Z,1.6
2023-08-07T10:44:04.394Z,1.7
2023-08-07T10:46:06.689Z,1.4
2023-08-07T10:48:07.579Z,1.5
2023-08-07T10:50:02.568Z,1.5
2023-08-07T10:52:04.539Z,1.6
2023-08-07T10:54:04.029Z,1.6
2023-08-07T10:56:04.722Z,1.5
2023-08-07T10:58:02.269Z,1.6
2023-08-07T11:00:08.463Z,1.5
2023-08-07T11:02:02.425Z,1.4
2023-08-07T11:04:11.305Z,1.4
2023-08-07T11:06:02.924Z,1.5
2023-08-07T11:08:03.286Z,1.5
2023-08-07T11:10:02.292Z,1.5
2023-08-07T11:12:02.319Z,1.4
2023-08-07T11:14:02.324Z,1.6
2023-08-07T11:16:04.270Z,1.5
2023-08-07T11:18:02.334Z,1.4
2023-08-07T11:20:05.021Z,1.6
2023-08-07T11:22:03.380Z,1.5
2023-08-07T11:24:03.925Z,1.4
2023-08-07T11:26:03.550Z,1.6
2023-08-07T11:28:02.571Z,1.6
2023-08-07T11:30:02.277Z,1.6
2023-08-07T11:32:04.281Z,1.6
2023-08-07T11:34:03.259Z,1.6
2023-08-07T11:36:02.933Z,1.6
2023-08-07T11:38:02.409Z,1.7
2023-08-07T11:40:03.514Z,1.2
2023-08-07T11:42:02.280Z,1.7
2023-08-07T11:44:02.520Z,1.6
2023-08-07T11:46:03.749Z,1.7
2023-08-07T11:48:03.685Z,1.9
2023-08-07T11:50:04.391Z,1.6
2023-08-07T11:52:02.949Z,1.8
2023-08-07T11:54:03.674Z,1.5
2023-08-07T11:56:05.518Z,1.6
2023-08-07T11:58:05.109Z,1.6
2023-08-07T12:00:02.672Z,1.7
2023-08-07T12:02:11.824Z,1.5
2023-08-07T12:04:10.556Z,1.6
2023-08-07T12:06:04.542Z,1.7
2023-08-07T12:08:03.010Z,2.0
2023-08-07T12:10:04.766Z,2.0
2023-08-07T12:12:04.386Z,1.9
2023-08-07T12:14:02.505Z,1.8
2023-08-07T12:16:04.094Z,1.6
2023-08-07T12:18:02.692Z,1.8
2023-08-07T12:20:04.558Z,1.4
2023-08-07T12:22:04.574Z,1.5
2023-08-07T12:24:02.284Z,1.3
2023-08-07T12:26:02.843Z,1.5
2023-08-07T12:28:02.684Z,1.6
2023-08-07T12:30:02.343Z,1.4
2023-08-07T12:32:03.194Z,1.5
2023-08-07T12:36:03.683Z,1.6
2023-08-07T12:38:03.249Z,1.7
2023-08-07T12:44:02.270Z,1.4
2023-08-07T12:48:02.427Z,1.5
2023-08-07T12:50:02.338Z,1.7
2023-08-07T12:52:04.921Z,1.7
2023-08-07T12:54:02.336Z,1.7
2023-08-07T12:56:03.547Z,1.4
2023-08-07T12:58:02.297Z,1.2
2023-08-07T13:00:03.106Z,1.6
2023-08-07T13:02:02.416Z,1.6
2023-08-07T13:04:05.046Z,1.7
2023-08-07T13:06:05.812Z,1.8
2023-08-07T13:08:02.308Z,1.8
2023-08-07T13:10:02.981Z,1.7
2023-08-07T13:12:02.449Z,1.5
2023-08-07T13:14:02.307Z,1.7
2023-08-07T13:16:02.767Z,1.8
2023-08-07T13:18:03.623Z,1.6
2023-08-07T13:20:08.174Z,1.7
2023-08-07T13:22:02.350Z,1.6
2023-08-07T13:24:02.246Z,1.8
2023-08-07T13:26:02.369Z,1.6
2023-08-07T13:28:07.064Z,1.5
2023-08-07T13:30:04.054Z,1.5
2023-08-07T13:32:09.630Z,1.9
2023-08-07T13:34:07.983Z,1.5
2023-08-07T13:36:02.423Z,1.9
2023-08-07T13:38:06.327Z,1.4
2023-08-07T13:40:04.926Z,1.7
2023-08-07T13:42:03.118Z,1.5
2023-08-07T13:44:02.384Z,1.7
2023-08-07T13:46:02.317Z,1.9
2023-08-07T13:48:03.025Z,1.7
2023-08-07T13:50:03.623Z,1.7
2023-08-07T13:52:02.441Z,1.5
2023-08-07T13:54:02.270Z,1.7
2023-08-07T13:56:02.493Z,1.9
2023-08-07T13:58:04.045Z,1.5
2023-08-07T14:00:03.463Z,1.7
2023-08-07T14:02:02.541Z,1.7
2023-08-07T14:04:03.232Z,1.6
2023-08-07T14:06:03.080Z,1.7
2023-08-07T14:08:02.994Z,1.6
2023-08-07T14:10:02.395Z,1.8
2023-08-07T14:12:02.297Z,1.4
2023-08-07T14:14:03.160Z,1.5
2023-08-07T14:16:02.604Z,1.4
2023-08-07T14:18:03.243Z,1.4
2023-08-07T14:20:05.058Z,1.4
2023-08-07T14:22:02.348Z,1.7
2023-08-07T14:24:02.262Z,1.7
2023-08-07T14:26:02.922Z,1.4
2023-08-07T14:28:02.511Z,1.5
2023-08-07T14:30:02.426Z,1.7
2023-08-07T14:32:02.805Z,1.4
2023-08-07T14:34:02.268Z,1.4
2023-08-07T14:36:02.569Z,1.4
2023-08-07T14:38:03.202Z,1.6
2023-08-07T14:40:04.380Z,1.7
2023-08-07T14:42:02.552Z,1.6
2023-08-07T14:44:02.535Z,1.4
2023-08-07T14:46:02.315Z,1.6
2023-08-07T14:48:02.453Z,1.4
2023-08-07T14:50:02.595Z,1.5
2023-08-07T14:52:02.796Z,1.3
2023-08-07T14:54:02.336Z,1.6
2023-08-07T14:56:03.141Z,1.7
2023-08-07T14:58:02.324Z,1.4
2023-08-07T15:00:02.948Z,1.5
2023-08-07T15:02:02.750Z,1.5
2023-08-07T15:04:02.720Z,1.6
2023-08-07T15:06:02.837Z,1.6
2023-08-07T15:08:02.439Z,1.6
2023-08-07T15:10:02.312Z,1.5
2023-08-07T15:12:02.532Z,2.1
2023-08-07T15:14:05.017Z,1.6
2023-08-07T15:16:02.708Z,1.7
2023-08-07T15:18:05.271Z,1.8
2023-08-07T15:20:03.980Z,1.4
2023-08-07T15:22:03.290Z,1.5
2023-08-07T15:24:02.509Z,1.4
2023-08-07T15:26:02.353Z,1.3
2023-08-07T15:28:03.429Z,1.4
2023-08-07T15:30:02.441Z,1.4
2023-08-07T15:32:02.347Z,1.3
2023-08-07T15:34:02.324Z,1.5
2023-08-07T15:36:02.575Z,1.5
2023-08-07T15:38:02.338Z,1.2
2023-08-07T15:40:03.104Z,1.1
2023-08-07T15:42:02.297Z,1.5
2023-08-07T15:44:02.346Z,1.4
2023-08-07T15:46:02.348Z,1.4
2023-08-07T15:48:03.217Z,1.5
2023-08-07T15:50:02.381Z,1.4
2023-08-07T15:52:03.405Z,1.7
2023-08-07T15:54:02.741Z,1.4
2023-08-07T15:56:02.957Z,1.4
2023-08-07T15:58:04.347Z,1.7
2023-08-07T16:00:02.313Z,1.4
2023-08-07T16:02:02.953Z,1.4
2023-08-07T16:04:03.835Z,1.6
2023-08-07T16:06:02.286Z,1.5
2023-08-07T16:08:03.237Z,1.7
2023-08-07T16:10:02.606Z,1.9
2023-08-07T16:12:02.376Z,2.4
2023-08-07T16:14:02.483Z,1.7
2023-08-07T16:16:02.553Z,1.8
2023-08-07T16:18:03.466Z,2.1
2023-08-07T16:20:02.309Z,1.8
2023-08-07T16:22:02.651Z,1.8
2023-08-07T16:24:03.657Z,1.9
2023-08-07T16:26:03.328Z,2.1
2023-08-07T16:28:04.693Z,2.1
2023-08-07T16:30:05.420Z,2.0
2023-08-07T16:32:05.181Z,2.1
2023-08-07T16:34:03.219Z,2.0
2023-08-07T16:36:02.908Z,1.8
2023-08-07T16:38:03.776Z,2.0
2023-08-07T16:40:04.666Z,2.2
2023-08-07T16:42:02.298Z,1.8
2023-08-07T16:44:02.844Z,2.1
2023-08-07T16:46:02.460Z,1.7
2023-08-07T16:48:02.338Z,1.9
2023-08-07T16:50:03.264Z,1.8
2023-08-07T16:52:04.448Z,2.1
2023-08-07T16:54:04.067Z,2.1
2023-08-07T16:56:03.374Z,1.8
2023-08-07T16:58:02.705Z,1.7
2023-08-07T17:00:04.608Z,2.0
2023-08-07T17:02:02.624Z,1.8
2023-08-07T17:04:02.576Z,1.9
2023-08-07T17:06:02.397Z,1.6
2023-08-07T17:08:03.022Z,2.1
2023-08-07T17:10:02.372Z,2.8
2023-08-07T17:12:02.945Z,2.2
2023-08-07T17:14:02.450Z,2.5
2023-08-07T17:16:04.253Z,3.1
2023-08-07T17:18:03.755Z,2.5
2023-08-07T17:20:04.214Z,2.7
2023-08-07T17:22:03.690Z,2.4
2023-08-07T17:24:02.908Z,2.2
2023-08-07T17:26:02.929Z,2.4
2023-08-07T17:28:03.534Z,2.6
2023-08-07T17:30:02.308Z,3.1
2023-08-07T17:32:02.330Z,2.6
2023-08-07T17:34:03.286Z,2.4
2023-08-07T17:36:02.959Z,2.6
2023-08-07T17:38:04.654Z,1.9
2023-08-07T17:40:04.033Z,2.6
2023-08-07T17:42:02.446Z,2.6
2023-08-07T17:44:02.877Z,2.9
2023-08-07T17:46:02.294Z,2.4
2023-08-07T17:48:02.794Z,2.9
2023-08-07T17:50:03.366Z,2.7
2023-08-07T17:52:04.028Z,2.6
2023-08-07T17:54:02.862Z,2.5
2023-08-07T17:56:02.427Z,2.0
2023-08-07T17:58:03.224Z,2.0
2023-08-07T18:00:04.104Z,2.0
2023-08-07T18:02:02.417Z,2.0
2023-08-07T18:04:02.910Z,2.3
2023-08-07T18:06:02.306Z,2.4
2023-08-07T18:08:02.369Z,2.5
2023-08-07T18:10:02.301Z,2.0
2023-08-07T18:12:04.075Z,1.7
2023-08-07T18:14:03.953Z,1.8
2023-08-07T18:16:02.522Z,1.8
2023-08-07T18:18:02.552Z,1.8
2023-08-07T18:20:05.990Z,2.1
2023-08-07T18:22:03.135Z,1.8
2023-08-07T18:24:02.501Z,1.7
2023-08-07T18:26:02.553Z,1.6
2023-08-07T18:28:03.102Z,1.7
2023-08-07T18:30:03.554Z,1.8
2023-08-07T18:32:05.007Z,2.1
2023-08-07T18:34:03.252Z,1.8
2023-08-07T18:36:03.385Z,1.8
2023-08-07T18:38:02.509Z,1.7
2023-08-07T18:40:02.523Z,2.0
2023-08-07T18:42:03.108Z,2.2
2023-08-07T18:44:03.446Z,2.0
2023-08-07T18:46:02.306Z,1.7
2023-08-07T18:48:03.197Z,2.2
2023-08-07T18:50:02.361Z,1.6
2023-08-07T18:52:04.808Z,2.2
2023-08-07T18:54:03.082Z,2.3
2023-08-07T18:56:02.621Z,1.9
2023-08-07T18:58:02.698Z,2.4
2023-08-07T19:00:03.164Z,2.0
2023-08-07T19:02:02.839Z,2.1
2023-08-07T19:04:03.238Z,2.6
2023-08-07T19:06:05.779Z,1.6
2023-08-07T19:08:02.366Z,1.9
2023-08-07T19:10:02.298Z,2.6
2023-08-07T19:12:14.131Z,2.3
2023-08-07T19:14:03.096Z,2.3
2023-08-07T19:16:02.494Z,2.2
2023-08-07T19:18:04.306Z,2.7
2023-08-07T19:20:03.271Z,2.8
2023-08-07T19:22:03.895Z,2.5
2023-08-07T19:24:02.495Z,2.4
2023-08-07T19:26:02.635Z,2.6
2023-08-07T19:28:02.500Z,2.8
2023-08-07T19:30:03.448Z,2.6
2023-08-07T19:32:02.470Z,3.2
2023-08-07T19:34:02.506Z,2.7
2023-08-07T19:36:03.183Z,2.9
2023-08-07T19:38:03.200Z,2.8
2023-08-07T19:40:07.434Z,2.6
2023-08-07T19:42:02.570Z,2.9
2023-08-07T19:44:03.124Z,3.3
2023-08-07T19:46:03.303Z,2.5
2023-08-07T19:48:02.628Z,2.7
2023-08-07T19:50:02.427Z,2.6
2023-08-07T19:52:03.035Z,3.0
2023-08-07T19:54:02.673Z,2.4
2023-08-07T19:56:03.684Z,2.6
2023-08-07T19:58:04.493Z,2.6
2023-08-07T20:00:02.359Z,2.6
2023-08-07T20:02:03.062Z,2.2
2023-08-07T20:04:04.187Z,2.5
2023-08-07T20:06:02.327Z,2.6
2023-08-07T20:08:02.344Z,2.5
2023-08-07T20:10:02.785Z,2.3
2023-08-07T20:12:02.461Z,2.4
2023-08-07T20:14:02.642Z,2.3
2023-08-07T20:16:05.291Z,2.3
2023-08-07T20:18:02.425Z,2.4
2023-08-07T20:20:03.466Z,2.5
2023-08-07T20:22:02.306Z,2.5
2023-08-07T20:24:02.387Z,2.1
2023-08-07T20:26:03.038Z,2.4
2023-08-07T20:28:02.463Z,2.7
2023-08-07T20:30:03.290Z,2.4
2023-08-07T20:32:02.740Z,2.7
2023-08-07T20:34:02.829Z,2.7
2023-08-07T20:36:03.042Z,3.0
2023-08-07T20:38:02.901Z,2.6
2023-08-07T20:40:02.906Z,2.6
2023-08-07T20:42:03.244Z,2.7
2023-08-07T20:44:03.465Z,2.9
2023-08-07T20:46:03.319Z,2.6
2023-08-07T20:48:02.633Z,2.5
2023-08-07T20:50:02.315Z,2.7
2023-08-07T20:52:02.525Z,2.7
2023-08-07T20:54:02.631Z,2.7
2023-08-07T20:56:02.962Z,2.6
2023-08-07T20:58:03.257Z,2.7
2023-08-07T21:00:03.931Z,2.5
2023-08-07T21:02:02.952Z,2.5
2023-08-07T21:04:02.593Z,2.4
2023-08-07T21:06:02.669Z,2.8
2023-08-07T21:08:02.394Z,2.7
2023-08-07T21:10:02.975Z,2.5
2023-08-07T21:12:02.332Z,2.5
2023-08-07T21:14:02.350Z,2.6
2023-08-07T21:16:03.394Z,2.6
2023-08-07T21:18:02.769Z,2.3
2023-08-07T21:20:02.535Z,2.5
2023-08-07T21:22:02.645Z,2.6
2023-08-07T21:24:02.293Z,2.7
2023-08-07T21:26:02.348Z,2.6
2023-08-07T21:28:02.678Z,2.5
2023-08-07T21:30:03.442Z,2.9
2023-08-07T21:32:03.163Z,2.6
2023-08-07T21:34:04.003Z,2.8
2023-08-07T21:36:03.948Z,2.9
2023-08-07T21:38:02.396Z,2.8
2023-08-07T21:40:05.083Z,2.8
2023-08-07T21:42:02.646Z,2.8
2023-08-07T21:44:02.392Z,3.1
2023-08-07T21:46:02.673Z,3.0
2023-08-07T21:48:02.355Z,2.8
2023-08-07T21:50:03.056Z,3.2
2023-08-07T21:52:02.630Z,3.0
2023-08-07T21:54:03.097Z,2.7
2023-08-07T21:56:02.399Z,2.9
2023-08-07T21:58:02.309Z,3.0
2023-08-07T22:00:06.316Z,2.9
2023-08-07T22:02:04.609Z,3.1
2023-08-07T22:04:02.570Z,2.9
2023-08-07T22:06:03.202Z,2.9
2023-08-07T22:08:04.322Z,2.9
2023-08-07T22:10:02.366Z,2.8
2023-08-07T22:12:02.407Z,2.7
2023-08-07T22:14:04.153Z,3.1
2023-08-07T22:16:02.508Z,2.7
2023-08-07T22:18:02.521Z,2.7
2023-08-07T22:20:05.992Z,2.8
2023-08-07T22:22:02.744Z,2.7
2023-08-07T22:24:02.947Z,2.5
2023-08-07T22:26:02.631Z,2.5
2023-08-07T22:28:05.422Z,2.6
2023-08-07T22:30:03.175Z,2.4
2023-08-07T22:32:02.451Z,2.6
2023-08-07T22:34:02.420Z,2.6
2023-08-07T22:36:02.346Z,2.6
2023-08-07T22:38:02.917Z,2.6
2023-08-07T22:40:04.036Z,2.8
2023-08-07T22:42:02.921Z,2.8
2023-08-07T22:44:02.967Z,2.6
2023-08-07T22:46:02.911Z,2.8
2023-08-07T22:48:02.453Z,2.5
2023-08-07T22:50:02.750Z,2.7
2023-08-07T22:52:03.359Z,2.8
2023-08-07T22:54:02.319Z,2.8
2023-08-07T22:56:02.354Z,2.8
2023-08-07T22:58:02.306Z,2.8
2023-08-07T23:00:04.021Z,2.8
2023-08-07T23:02:02.715Z,3.1
2023-08-07T23:04:02.832Z,2.6
2023-08-07T23:06:02.294Z,3.0
2023-08-07T23:08:02.481Z,2.8
2023-08-07T23:10:02.456Z,2.9
2023-08-07T23:12:02.381Z,3.0
2023-08-07T23:14:03.854Z,2.7
2023-08-07T23:16:02.927Z,2.8
2023-08-07T23:18:02.350Z,2.9
2023-08-07T23:20:03.081Z,3.1
2023-08-07T23:22:02.338Z,2.9
2023-08-07T23:24:02.422Z,3.0
2023-08-07T23:26:02.726Z,3.0
2023-08-07T23:28:02.516Z,3.2
2023-08-07T23:30:03.698Z,2.9
2023-08-07T23:32:02.476Z,3.0
2023-08-07T23:34:02.390Z,2.9
2023-08-07T23:36:02.553Z,3.0
2023-08-07T23:38:04.259Z,2.9
2023-08-07T23:40:02.871Z,2.9
2023-08-07T23:42:02.282Z,3.2
2023-08-07T23:44:02.426Z,2.9
2023-08-07T23:46:03.368Z,3.1
2023-08-07T23:48:02.395Z,2.9
2023-08-07T23:50:02.911Z,3.1
2023-08-07T23:52:03.870Z,3.1
2023-08-07T23:54:02.269Z,3.2
2023-08-07T23:56:03.817Z,2.9
2023-08-07T23:58:03.028Z,2.9
